Terminal Aerodrome Forecast
Issued by NWS El Paso, TX

Home | Current Version | Previous Version | Text Only | Print | Product List | Glossary On
Versions: 1 2 3 4 5 6 7 8 9 10 11 12 13
000
FTUS44 KEPZ 310500
TAFELP
TAF
KELP 310525Z 3106/0106 08005KT 6SM -RA OVC015
      TEMPO 3106/3110 3SM -RA BR BKN010 OVC015
     FM311200 VRB04KT 6SM -RA BKN020 OVC100
     FM312100 27007KT P6SM VCSH BKN060
     FM010400 26007KT P6SM BKN030 OVC080=

USA.gov is the U.S. government's official web portal to all federal, state and local government web resources and services.